sensor_id;sensor_type;location;lat;lon;timestamp;P1;durP1;ratioP1;P2;durP2;ratioP2
21356;SDS011;10836;53.068;18.234;2023-03-31T00:00:35;23.20;;;16.93;;
21356;SDS011;10836;53.068;18.234;2023-03-31T00:03:13;27.27;;;16.50;;
21356;SDS011;10836;53.068;18.234;2023-03-31T00:05:47;26.17;;;16.97;;
21356;SDS011;10836;53.068;18.234;2023-03-31T00:08:14;26.53;;;17.17;;
21356;SDS011;10836;53.068;18.234;2023-03-31T00:10:44;26.67;;;16.80;;
21356;SDS011;10836;53.068;18.234;2023-03-31T00:13:12;32.93;;;18.37;;
21356;SDS011;10836;53.068;18.234;2023-03-31T00:15:39;29.17;;;18.30;;
21356;SDS011;10836;53.068;18.234;2023-03-31T00:18:06;30.47;;;18.07;;
21356;SDS011;10836;53.068;18.234;2023-03-31T00:20:33;24.33;;;16.33;;
21356;SDS011;10836;53.068;18.234;2023-03-31T00:23:04;28.53;;;16.70;;
21356;SDS011;10836;53.068;18.234;2023-03-31T00:25:39;20.93;;;15.63;;
21356;SDS011;10836;53.068;18.234;2023-03-31T00:28:07;25.53;;;16.77;;
21356;SDS011;10836;53.068;18.234;2023-03-31T00:30:34;24.50;;;16.50;;
21356;SDS011;10836;53.068;18.234;2023-03-31T00:33:01;28.33;;;17.27;;
21356;SDS011;10836;53.068;18.234;2023-03-31T00:35:28;24.40;;;17.43;;
21356;SDS011;10836;53.068;18.234;2023-03-31T00:37:55;25.07;;;17.07;;
21356;SDS011;10836;53.068;18.234;2023-03-31T00:40:23;28.03;;;18.17;;
21356;SDS011;10836;53.068;18.234;2023-03-31T00:42:50;28.13;;;17.73;;
21356;SDS011;10836;53.068;18.234;2023-03-31T00:45:22;27.73;;;18.20;;
21356;SDS011;10836;53.068;18.234;2023-03-31T00:47:54;27.70;;;18.90;;
21356;SDS011;10836;53.068;18.234;2023-03-31T00:50:26;27.47;;;18.70;;
21356;SDS011;10836;53.068;18.234;2023-03-31T00:53:07;27.67;;;18.50;;
21356;SDS011;10836;53.068;18.234;2023-03-31T00:55:41;29.17;;;18.37;;
21356;SDS011;10836;53.068;18.234;2023-03-31T00:58:13;27.57;;;19.10;;
21356;SDS011;10836;53.068;18.234;2023-03-31T01:00:48;27.77;;;19.07;;
21356;SDS011;10836;53.068;18.234;2023-03-31T01:03:18;34.33;;;20.20;;
21356;SDS011;10836;53.068;18.234;2023-03-31T01:05:49;31.03;;;20.73;;
21356;SDS011;10836;53.068;18.234;2023-03-31T01:08:20;37.50;;;21.27;;
21356;SDS011;10836;53.068;18.234;2023-03-31T01:10:52;32.53;;;20.33;;
21356;SDS011;10836;53.068;18.234;2023-03-31T01:13:22;34.77;;;21.50;;
21356;SDS011;10836;53.068;18.234;2023-03-31T01:15:51;36.90;;;21.13;;
21356;SDS011;10836;53.068;18.234;2023-03-31T01:18:19;32.60;;;20.30;;
21356;SDS011;10836;53.068;18.234;2023-03-31T01:20:58;32.57;;;20.73;;
21356;SDS011;10836;53.068;18.234;2023-03-31T01:29:39;40.03;;;22.70;;
21356;SDS011;10836;53.068;18.234;2023-03-31T01:40:40;36.97;;;22.87;;
21356;SDS011;10836;53.068;18.234;2023-03-31T01:43:21;31.63;;;22.20;;
21356;SDS011;10836;53.068;18.234;2023-03-31T01:46:00;36.93;;;22.40;;
21356;SDS011;10836;53.068;18.234;2023-03-31T02:02:47;32.63;;;21.20;;
21356;SDS011;10836;53.068;18.234;2023-03-31T02:05:21;38.07;;;22.10;;
21356;SDS011;10836;53.068;18.234;2023-03-31T02:07:56;40.03;;;22.83;;
21356;SDS011;10836;53.068;18.234;2023-03-31T02:10:28;35.87;;;23.00;;
21356;SDS011;10836;53.068;18.234;2023-03-31T02:12:58;37.27;;;23.10;;
21356;SDS011;10836;53.068;18.234;2023-03-31T02:15:33;39.27;;;22.37;;
21356;SDS011;10836;53.068;18.234;2023-03-31T02:18:05;36.30;;;21.27;;
21356;SDS011;10836;53.068;18.234;2023-03-31T02:20:39;31.70;;;22.13;;
21356;SDS011;10836;53.068;18.234;2023-03-31T02:23:13;30.10;;;20.33;;
21356;SDS011;10836;53.068;18.234;2023-03-31T02:25:45;33.90;;;22.20;;
21356;SDS011;10836;53.068;18.234;2023-03-31T02:28:24;31.50;;;21.30;;
21356;SDS011;10836;53.068;18.234;2023-03-31T02:33:32;38.57;;;21.47;;
21356;SDS011;10836;53.068;18.234;2023-03-31T02:35:59;41.87;;;21.93;;
21356;SDS011;10836;53.068;18.234;2023-03-31T02:38:26;33.97;;;19.90;;
21356;SDS011;10836;53.068;18.234;2023-03-31T02:40:53;32.00;;;20.37;;
21356;SDS011;10836;53.068;18.234;2023-03-31T02:43:20;29.83;;;18.93;;
21356;SDS011;10836;53.068;18.234;2023-03-31T02:45:48;35.07;;;18.33;;
21356;SDS011;10836;53.068;18.234;2023-03-31T02:48:29;32.97;;;18.10;;
21356;SDS011;10836;53.068;18.234;2023-03-31T02:59:47;27.43;;;14.80;;
21356;SDS011;10836;53.068;18.234;2023-03-31T03:02:35;26.07;;;14.77;;
21356;SDS011;10836;53.068;18.234;2023-03-31T03:11:04;20.67;;;13.23;;
21356;SDS011;10836;53.068;18.234;2023-03-31T03:13:46;23.50;;;12.87;;
21356;SDS011;10836;53.068;18.234;2023-03-31T03:16:24;27.60;;;12.60;;
21356;SDS011;10836;53.068;18.234;2023-03-31T03:19:02;21.47;;;12.13;;
21356;SDS011;10836;53.068;18.234;2023-03-31T03:21:32;21.37;;;11.10;;
21356;SDS011;10836;53.068;18.234;2023-03-31T03:23:59;18.87;;;11.07;;
21356;SDS011;10836;53.068;18.234;2023-03-31T03:26:27;16.77;;;10.40;;
21356;SDS011;10836;53.068;18.234;2023-03-31T03:28:54;15.83;;;9.50;;
21356;SDS011;10836;53.068;18.234;2023-03-31T03:31:22;18.03;;;10.37;;
21356;SDS011;10836;53.068;18.234;2023-03-31T03:33:51;14.13;;;8.57;;
21356;SDS011;10836;53.068;18.234;2023-03-31T03:36:19;21.63;;;9.57;;
21356;SDS011;10836;53.068;18.234;2023-03-31T03:38:46;19.07;;;9.30;;
21356;SDS011;10836;53.068;18.234;2023-03-31T03:41:13;19.17;;;9.90;;
21356;SDS011;10836;53.068;18.234;2023-03-31T03:43:39;15.13;;;9.23;;
21356;SDS011;10836;53.068;18.234;2023-03-31T03:46:06;17.00;;;9.50;;
21356;SDS011;10836;53.068;18.234;2023-03-31T03:48:34;16.53;;;8.73;;
21356;SDS011;10836;53.068;18.234;2023-03-31T03:51:01;17.73;;;8.60;;
21356;SDS011;10836;53.068;18.234;2023-03-31T03:53:28;19.03;;;9.50;;
21356;SDS011;10836;53.068;18.234;2023-03-31T03:55:55;14.97;;;9.43;;
21356;SDS011;10836;53.068;18.234;2023-03-31T03:58:21;19.27;;;9.10;;
21356;SDS011;10836;53.068;18.234;2023-03-31T04:00:49;18.10;;;8.63;;
21356;SDS011;10836;53.068;18.234;2023-03-31T04:03:15;23.73;;;8.87;;
21356;SDS011;10836;53.068;18.234;2023-03-31T04:05:42;14.67;;;8.07;;
21356;SDS011;10836;53.068;18.234;2023-03-31T04:08:09;18.07;;;9.30;;
21356;SDS011;10836;53.068;18.234;2023-03-31T04:10:36;16.70;;;9.20;;
21356;SDS011;10836;53.068;18.234;2023-03-31T04:13:03;20.47;;;9.30;;
21356;SDS011;10836;53.068;18.234;2023-03-31T04:15:30;18.03;;;9.73;;
21356;SDS011;10836;53.068;18.234;2023-03-31T04:17:57;21.87;;;10.00;;
21356;SDS011;10836;53.068;18.234;2023-03-31T04:20:24;17.77;;;8.93;;
21356;SDS011;10836;53.068;18.234;2023-03-31T04:22:56;18.53;;;8.83;;
21356;SDS011;10836;53.068;18.234;2023-03-31T04:25:24;15.20;;;9.00;;
21356;SDS011;10836;53.068;18.234;2023-03-31T04:27:51;17.77;;;9.13;;
21356;SDS011;10836;53.068;18.234;2023-03-31T04:30:25;14.90;;;8.30;;
21356;SDS011;10836;53.068;18.234;2023-03-31T04:33:00;16.67;;;9.27;;
21356;SDS011;10836;53.068;18.234;2023-03-31T04:35:29;17.57;;;8.60;;
21356;SDS011;10836;53.068;18.234;2023-03-31T04:38:23;15.90;;;9.37;;
21356;SDS011;10836;53.068;18.234;2023-03-31T04:40:52;14.13;;;8.97;;
21356;SDS011;10836;53.068;18.234;2023-03-31T04:43:20;27.63;;;9.70;;
21356;SDS011;10836;53.068;18.234;2023-03-31T04:45:47;17.17;;;8.47;;
21356;SDS011;10836;53.068;18.234;2023-03-31T04:48:14;18.40;;;10.07;;
21356;SDS011;10836;53.068;18.234;2023-03-31T04:50:41;19.90;;;9.97;;
21356;SDS011;10836;53.068;18.234;2023-03-31T04:53:08;18.77;;;10.50;;
21356;SDS011;10836;53.068;18.234;2023-03-31T04:55:35;19.47;;;9.70;;
21356;SDS011;10836;53.068;18.234;2023-03-31T04:58:02;18.73;;;10.50;;
21356;SDS011;10836;53.068;18.234;2023-03-31T05:00:29;20.87;;;10.67;;
21356;SDS011;10836;53.068;18.234;2023-03-31T05:02:56;18.37;;;10.60;;
21356;SDS011;10836;53.068;18.234;2023-03-31T05:05:26;22.13;;;10.13;;
21356;SDS011;10836;53.068;18.234;2023-03-31T05:07:53;22.00;;;12.00;;
21356;SDS011;10836;53.068;18.234;2023-03-31T05:10:20;15.87;;;9.90;;
21356;SDS011;10836;53.068;18.234;2023-03-31T05:12:47;20.97;;;10.23;;
21356;SDS011;10836;53.068;18.234;2023-03-31T05:15:15;20.87;;;10.53;;
21356;SDS011;10836;53.068;18.234;2023-03-31T05:17:42;24.80;;;11.13;;
21356;SDS011;10836;53.068;18.234;2023-03-31T05:20:09;23.17;;;10.97;;
21356;SDS011;10836;53.068;18.234;2023-03-31T05:22:37;18.93;;;10.90;;
21356;SDS011;10836;53.068;18.234;2023-03-31T05:25:09;19.40;;;10.63;;
21356;SDS011;10836;53.068;18.234;2023-03-31T05:27:40;22.43;;;11.43;;
21356;SDS011;10836;53.068;18.234;2023-03-31T05:30:07;20.43;;;10.60;;
21356;SDS011;10836;53.068;18.234;2023-03-31T05:32:34;20.20;;;10.97;;
21356;SDS011;10836;53.068;18.234;2023-03-31T05:35:01;18.53;;;10.80;;
21356;SDS011;10836;53.068;18.234;2023-03-31T05:37:28;23.67;;;11.20;;
21356;SDS011;10836;53.068;18.234;2023-03-31T05:39:55;23.00;;;10.97;;
21356;SDS011;10836;53.068;18.234;2023-03-31T05:42:22;22.77;;;10.33;;
21356;SDS011;10836;53.068;18.234;2023-03-31T05:44:49;18.10;;;11.30;;
21356;SDS011;10836;53.068;18.234;2023-03-31T05:47:16;21.33;;;11.43;;
21356;SDS011;10836;53.068;18.234;2023-03-31T05:49:43;18.17;;;10.40;;
21356;SDS011;10836;53.068;18.234;2023-03-31T05:52:10;18.40;;;10.47;;
21356;SDS011;10836;53.068;18.234;2023-03-31T05:54:38;19.67;;;10.37;;
21356;SDS011;10836;53.068;18.234;2023-03-31T05:57:04;20.50;;;10.50;;
21356;SDS011;10836;53.068;18.234;2023-03-31T05:59:32;19.03;;;10.13;;
21356;SDS011;10836;53.068;18.234;2023-03-31T06:02:04;15.90;;;9.63;;
21356;SDS011;10836;53.068;18.234;2023-03-31T06:04:31;20.57;;;10.07;;
21356;SDS011;10836;53.068;18.234;2023-03-31T06:06:58;20.23;;;11.00;;
21356;SDS011;10836;53.068;18.234;2023-03-31T06:09:25;17.63;;;9.70;;
21356;SDS011;10836;53.068;18.234;2023-03-31T06:11:53;15.13;;;8.93;;
21356;SDS011;10836;53.068;18.234;2023-03-31T06:14:20;15.67;;;8.60;;
21356;SDS011;10836;53.068;18.234;2023-03-31T06:16:47;17.67;;;9.20;;
21356;SDS011;10836;53.068;18.234;2023-03-31T06:19:15;16.73;;;8.50;;
21356;SDS011;10836;53.068;18.234;2023-03-31T06:21:41;17.50;;;9.20;;
21356;SDS011;10836;53.068;18.234;2023-03-31T06:24:09;17.93;;;8.93;;
21356;SDS011;10836;53.068;18.234;2023-03-31T06:26:36;17.57;;;8.20;;
21356;SDS011;10836;53.068;18.234;2023-03-31T06:29:03;18.43;;;8.77;;
21356;SDS011;10836;53.068;18.234;2023-03-31T06:31:30;16.67;;;8.87;;
21356;SDS011;10836;53.068;18.234;2023-03-31T06:33:57;14.73;;;8.43;;
21356;SDS011;10836;53.068;18.234;2023-03-31T06:36:24;17.03;;;8.80;;
21356;SDS011;10836;53.068;18.234;2023-03-31T06:38:52;13.00;;;8.00;;
21356;SDS011;10836;53.068;18.234;2023-03-31T06:41:19;16.33;;;8.67;;
21356;SDS011;10836;53.068;18.234;2023-03-31T06:43:48;15.97;;;8.40;;
21356;SDS011;10836;53.068;18.234;2023-03-31T06:46:16;17.37;;;8.53;;
21356;SDS011;10836;53.068;18.234;2023-03-31T06:48:43;15.30;;;7.77;;
21356;SDS011;10836;53.068;18.234;2023-03-31T06:51:10;14.90;;;8.30;;
21356;SDS011;10836;53.068;18.234;2023-03-31T06:53:37;16.20;;;7.83;;
21356;SDS011;10836;53.068;18.234;2023-03-31T06:56:04;15.87;;;8.03;;
21356;SDS011;10836;53.068;18.234;2023-03-31T06:58:32;16.90;;;7.33;;
21356;SDS011;10836;53.068;18.234;2023-03-31T07:01:01;13.67;;;7.23;;
21356;SDS011;10836;53.068;18.234;2023-03-31T07:03:30;14.80;;;7.80;;
21356;SDS011;10836;53.068;18.234;2023-03-31T07:05:58;14.00;;;6.93;;
21356;SDS011;10836;53.068;18.234;2023-03-31T07:08:25;12.47;;;7.00;;
21356;SDS011;10836;53.068;18.234;2023-03-31T07:10:53;18.47;;;7.63;;
21356;SDS011;10836;53.068;18.234;2023-03-31T07:13:23;13.47;;;6.73;;
21356;SDS011;10836;53.068;18.234;2023-03-31T07:15:51;13.47;;;6.70;;
21356;SDS011;10836;53.068;18.234;2023-03-31T07:18:18;9.87;;;6.30;;
21356;SDS011;10836;53.068;18.234;2023-03-31T07:20:49;14.40;;;7.23;;
21356;SDS011;10836;53.068;18.234;2023-03-31T07:23:17;16.87;;;6.67;;
21356;SDS011;10836;53.068;18.234;2023-03-31T07:25:45;12.80;;;6.77;;
21356;SDS011;10836;53.068;18.234;2023-03-31T07:28:13;18.20;;;8.03;;
21356;SDS011;10836;53.068;18.234;2023-03-31T07:30:40;16.47;;;6.77;;
21356;SDS011;10836;53.068;18.234;2023-03-31T07:33:07;13.83;;;6.83;;
21356;SDS011;10836;53.068;18.234;2023-03-31T07:35:38;14.07;;;6.07;;
21356;SDS011;10836;53.068;18.234;2023-03-31T07:38:07;14.57;;;6.10;;
21356;SDS011;10836;53.068;18.234;2023-03-31T07:40:35;14.67;;;6.60;;
21356;SDS011;10836;53.068;18.234;2023-03-31T07:43:03;13.93;;;6.07;;
21356;SDS011;10836;53.068;18.234;2023-03-31T07:45:31;11.17;;;6.37;;
21356;SDS011;10836;53.068;18.234;2023-03-31T07:47:59;10.87;;;5.03;;
21356;SDS011;10836;53.068;18.234;2023-03-31T07:50:26;14.70;;;6.10;;
21356;SDS011;10836;53.068;18.234;2023-03-31T07:52:55;9.70;;;5.80;;
21356;SDS011;10836;53.068;18.234;2023-03-31T07:55:22;9.13;;;5.20;;
21356;SDS011;10836;53.068;18.234;2023-03-31T07:57:49;9.23;;;4.80;;
21356;SDS011;10836;53.068;18.234;2023-03-31T08:00:17;13.83;;;6.03;;
21356;SDS011;10836;53.068;18.234;2023-03-31T08:02:44;12.77;;;5.77;;
21356;SDS011;10836;53.068;18.234;2023-03-31T08:05:16;10.38;;;4.40;;
21356;SDS011;10836;53.068;18.234;2023-03-31T08:07:45;11.77;;;5.47;;
21356;SDS011;10836;53.068;18.234;2023-03-31T08:10:18;11.85;;;5.25;;
21356;SDS011;10836;53.068;18.234;2023-03-31T08:12:51;15.98;;;5.78;;
21356;SDS011;10836;53.068;18.234;2023-03-31T08:15:18;8.68;;;4.55;;
21356;SDS011;10836;53.068;18.234;2023-03-31T08:17:45;15.25;;;6.60;;
21356;SDS011;10836;53.068;18.234;2023-03-31T08:20:12;13.75;;;6.50;;
21356;SDS011;10836;53.068;18.234;2023-03-31T08:22:40;13.73;;;6.72;;
21356;SDS011;10836;53.068;18.234;2023-03-31T08:25:07;11.87;;;5.00;;
21356;SDS011;10836;53.068;18.234;2023-03-31T08:27:35;13.77;;;5.63;;
21356;SDS011;10836;53.068;18.234;2023-03-31T08:30:04;11.80;;;4.90;;
21356;SDS011;10836;53.068;18.234;2023-03-31T08:32:39;14.90;;;6.40;;
21356;SDS011;10836;53.068;18.234;2023-03-31T08:35:06;10.47;;;5.60;;
21356;SDS011;10836;53.068;18.234;2023-03-31T08:37:34;10.90;;;5.30;;
21356;SDS011;10836;53.068;18.234;2023-03-31T08:40:03;14.27;;;5.88;;
21356;SDS011;10836;53.068;18.234;2023-03-31T08:42:35;15.82;;;5.55;;
21356;SDS011;10836;53.068;18.234;2023-03-31T08:45:20;11.30;;;5.30;;
21356;SDS011;10836;53.068;18.234;2023-03-31T08:47:49;12.75;;;5.20;;
21356;SDS011;10836;53.068;18.234;2023-03-31T08:50:22;12.25;;;5.72;;
21356;SDS011;10836;53.068;18.234;2023-03-31T08:55:52;11.18;;;5.55;;
21356;SDS011;10836;53.068;18.234;2023-03-31T09:01:12;11.85;;;4.97;;
21356;SDS011;10836;53.068;18.234;2023-03-31T09:06:40;11.50;;;4.90;;
21356;SDS011;10836;53.068;18.234;2023-03-31T09:09:18;13.67;;;5.60;;
21356;SDS011;10836;53.068;18.234;2023-03-31T09:12:04;12.95;;;5.68;;
21356;SDS011;10836;53.068;18.234;2023-03-31T09:14:58;12.40;;;5.45;;
21356;SDS011;10836;53.068;18.234;2023-03-31T09:17:30;16.90;;;5.63;;
21356;SDS011;10836;53.068;18.234;2023-03-31T09:22:40;15.25;;;6.47;;
21356;SDS011;10836;53.068;18.234;2023-03-31T09:25:18;13.80;;;5.77;;
21356;SDS011;10836;53.068;18.234;2023-03-31T09:27:49;11.77;;;5.47;;
21356;SDS011;10836;53.068;18.234;2023-03-31T09:33:37;14.77;;;5.50;;
21356;SDS011;10836;53.068;18.234;2023-03-31T09:36:01;13.50;;;5.13;;
21356;SDS011;10836;53.068;18.234;2023-03-31T09:38:41;16.52;;;5.88;;
21356;SDS011;10836;53.068;18.234;2023-03-31T09:41:09;13.48;;;5.53;;
21356;SDS011;10836;53.068;18.234;2023-03-31T09:43:39;10.63;;;5.32;;
21356;SDS011;10836;53.068;18.234;2023-03-31T09:46:29;17.67;;;5.00;;
21356;SDS011;10836;53.068;18.234;2023-03-31T09:49:04;16.67;;;4.85;;
21356;SDS011;10836;53.068;18.234;2023-03-31T09:51:36;10.68;;;4.78;;
21356;SDS011;10836;53.068;18.234;2023-03-31T09:54:14;12.82;;;4.90;;
21356;SDS011;10836;53.068;18.234;2023-03-31T09:56:50;13.35;;;4.88;;
21356;SDS011;10836;53.068;18.234;2023-03-31T09:59:20;12.82;;;4.88;;
21356;SDS011;10836;53.068;18.234;2023-03-31T10:02:19;14.80;;;5.47;;
21356;SDS011;10836;53.068;18.234;2023-03-31T10:04:54;14.30;;;5.85;;
21356;SDS011;10836;53.068;18.234;2023-03-31T10:07:22;14.32;;;4.93;;
21356;SDS011;10836;53.068;18.234;2023-03-31T10:09:51;11.90;;;4.70;;
21356;SDS011;10836;53.068;18.234;2023-03-31T10:12:20;12.60;;;4.38;;
21356;SDS011;10836;53.068;18.234;2023-03-31T10:14:51;15.10;;;5.43;;
21356;SDS011;10836;53.068;18.234;2023-03-31T10:17:23;13.18;;;4.32;;
21356;SDS011;10836;53.068;18.234;2023-03-31T10:19:57;14.68;;;5.32;;
21356;SDS011;10836;53.068;18.234;2023-03-31T10:24:53;16.63;;;5.15;;
21356;SDS011;10836;53.068;18.234;2023-03-31T10:27:24;12.80;;;4.25;;
21356;SDS011;10836;53.068;18.234;2023-03-31T10:29:56;10.30;;;4.07;;
21356;SDS011;10836;53.068;18.234;2023-03-31T10:32:25;15.57;;;5.15;;
21356;SDS011;10836;53.068;18.234;2023-03-31T10:34:55;11.02;;;4.35;;
21356;SDS011;10836;53.068;18.234;2023-03-31T10:37:27;11.70;;;4.15;;
21356;SDS011;10836;53.068;18.234;2023-03-31T10:39:55;10.07;;;4.18;;
21356;SDS011;10836;53.068;18.234;2023-03-31T10:42:24;9.55;;;4.28;;
21356;SDS011;10836;53.068;18.234;2023-03-31T10:48:03;12.80;;;4.22;;
21356;SDS011;10836;53.068;18.234;2023-03-31T10:50:31;11.57;;;3.53;;
21356;SDS011;10836;53.068;18.234;2023-03-31T10:53:04;13.60;;;3.90;;
21356;SDS011;10836;53.068;18.234;2023-03-31T10:55:55;11.38;;;3.47;;
21356;SDS011;10836;53.068;18.234;2023-03-31T10:58:51;13.75;;;4.80;;
21356;SDS011;10836;53.068;18.234;2023-03-31T11:12:26;15.43;;;4.88;;
21356;SDS011;10836;53.068;18.234;2023-03-31T11:25:58;11.10;;;4.07;;
21356;SDS011;10836;53.068;18.234;2023-03-31T11:28:33;14.57;;;4.50;;
21356;SDS011;10836;53.068;18.234;2023-03-31T11:34:27;16.38;;;4.03;;
21356;SDS011;10836;53.068;18.234;2023-03-31T11:37:19;10.98;;;3.90;;
21356;SDS011;10836;53.068;18.234;2023-03-31T11:46:04;10.60;;;3.53;;
21356;SDS011;10836;53.068;18.234;2023-03-31T11:48:45;13.52;;;3.30;;
21356;SDS011;10836;53.068;18.234;2023-03-31T11:51:22;11.48;;;3.97;;
21356;SDS011;10836;53.068;18.234;2023-03-31T11:54:22;15.50;;;3.80;;
21356;SDS011;10836;53.068;18.234;2023-03-31T11:57:03;8.48;;;3.50;;
21356;SDS011;10836;53.068;18.234;2023-03-31T11:59:38;8.73;;;3.90;;
21356;SDS011;10836;53.068;18.234;2023-03-31T12:02:17;10.00;;;4.30;;
21356;SDS011;10836;53.068;18.234;2023-03-31T12:04:52;13.32;;;3.80;;
21356;SDS011;10836;53.068;18.234;2023-03-31T12:12:48;11.82;;;3.95;;
21356;SDS011;10836;53.068;18.234;2023-03-31T12:15:39;13.82;;;4.40;;
21356;SDS011;10836;53.068;18.234;2023-03-31T12:18:11;11.20;;;4.13;;
21356;SDS011;10836;53.068;18.234;2023-03-31T12:20:46;14.02;;;4.55;;
21356;SDS011;10836;53.068;18.234;2023-03-31T12:23:26;11.32;;;4.22;;
21356;SDS011;10836;53.068;18.234;2023-03-31T12:28:55;15.00;;;4.93;;
21356;SDS011;10836;53.068;18.234;2023-03-31T12:31:25;14.88;;;4.70;;
21356;SDS011;10836;53.068;18.234;2023-03-31T12:33:57;12.48;;;4.35;;
21356;SDS011;10836;53.068;18.234;2023-03-31T12:45:28;9.52;;;3.35;;
21356;SDS011;10836;53.068;18.234;2023-03-31T12:48:06;10.75;;;3.63;;
21356;SDS011;10836;53.068;18.234;2023-03-31T12:53:28;9.40;;;3.88;;
21356;SDS011;10836;53.068;18.234;2023-03-31T12:56:04;12.35;;;4.32;;
21356;SDS011;10836;53.068;18.234;2023-03-31T12:58:36;16.10;;;4.15;;
21356;SDS011;10836;53.068;18.234;2023-03-31T13:09:45;8.87;;;4.13;;
21356;SDS011;10836;53.068;18.234;2023-03-31T13:12:04;12.25;;;4.28;;
21356;SDS011;10836;53.068;18.234;2023-03-31T13:14:36;12.55;;;4.30;;
21356;SDS011;10836;53.068;18.234;2023-03-31T13:19:40;12.63;;;5.03;;
21356;SDS011;10836;53.068;18.234;2023-03-31T13:22:26;13.38;;;4.47;;
21356;SDS011;10836;53.068;18.234;2023-03-31T13:28:13;11.25;;;4.22;;
21356;SDS011;10836;53.068;18.234;2023-03-31T13:50:56;11.27;;;3.63;;
21356;SDS011;10836;53.068;18.234;2023-03-31T13:59:19;6.63;;;2.95;;
21356;SDS011;10836;53.068;18.234;2023-03-31T14:07:31;10.82;;;2.92;;
21356;SDS011;10836;53.068;18.234;2023-03-31T14:10:04;7.65;;;2.75;;
21356;SDS011;10836;53.068;18.234;2023-03-31T14:12:36;9.07;;;2.67;;
21356;SDS011;10836;53.068;18.234;2023-03-31T14:15:04;6.95;;;2.70;;
21356;SDS011;10836;53.068;18.234;2023-03-31T14:17:33;10.43;;;2.85;;
21356;SDS011;10836;53.068;18.234;2023-03-31T14:25:30;9.95;;;4.07;;
21356;SDS011;10836;53.068;18.234;2023-03-31T14:31:14;12.77;;;4.78;;
21356;SDS011;10836;53.068;18.234;2023-03-31T14:37:02;21.70;;;8.70;;
21356;SDS011;10836;53.068;18.234;2023-03-31T14:39:35;14.60;;;7.57;;
21356;SDS011;10836;53.068;18.234;2023-03-31T14:42:13;15.93;;;7.57;;
21356;SDS011;10836;53.068;18.234;2023-03-31T14:44:43;16.58;;;7.13;;
21356;SDS011;10836;53.068;18.234;2023-03-31T14:47:15;13.60;;;4.60;;
21356;SDS011;10836;53.068;18.234;2023-03-31T14:50:14;11.85;;;4.85;;
21356;SDS011;10836;53.068;18.234;2023-03-31T14:52:46;13.07;;;4.75;;
21356;SDS011;10836;53.068;18.234;2023-03-31T14:55:15;12.98;;;4.40;;
21356;SDS011;10836;53.068;18.234;2023-03-31T14:57:44;15.90;;;4.63;;
21356;SDS011;10836;53.068;18.234;2023-03-31T15:00:24;17.17;;;6.18;;
21356;SDS011;10836;53.068;18.234;2023-03-31T15:02:55;25.55;;;6.97;;
21356;SDS011;10836;53.068;18.234;2023-03-31T15:05:27;13.52;;;4.70;;
21356;SDS011;10836;53.068;18.234;2023-03-31T15:07:57;11.20;;;3.78;;
21356;SDS011;10836;53.068;18.234;2023-03-31T15:10:29;22.48;;;9.80;;
21356;SDS011;10836;53.068;18.234;2023-03-31T15:13:01;36.13;;;10.93;;
21356;SDS011;10836;53.068;18.234;2023-03-31T15:15:35;20.50;;;6.60;;
21356;SDS011;10836;53.068;18.234;2023-03-31T15:18:02;14.07;;;3.90;;
21356;SDS011;10836;53.068;18.234;2023-03-31T15:20:30;10.10;;;3.22;;
21356;SDS011;10836;53.068;18.234;2023-03-31T15:23:18;10.95;;;3.03;;
21356;SDS011;10836;53.068;18.234;2023-03-31T15:25:57;11.48;;;3.63;;
21356;SDS011;10836;53.068;18.234;2023-03-31T15:28:36;17.67;;;5.47;;
21356;SDS011;10836;53.068;18.234;2023-03-31T15:31:06;7.90;;;3.58;;
21356;SDS011;10836;53.068;18.234;2023-03-31T15:33:36;12.65;;;3.78;;
21356;SDS011;10836;53.068;18.234;2023-03-31T15:36:09;7.83;;;3.60;;
21356;SDS011;10836;53.068;18.234;2023-03-31T15:38:38;13.00;;;4.37;;
21356;SDS011;10836;53.068;18.234;2023-03-31T15:41:12;12.87;;;4.07;;
21356;SDS011;10836;53.068;18.234;2023-03-31T15:46:15;12.23;;;5.30;;
21356;SDS011;10836;53.068;18.234;2023-03-31T15:49:02;15.27;;;5.30;;
21356;SDS011;10836;53.068;18.234;2023-03-31T15:51:35;13.73;;;5.00;;
21356;SDS011;10836;53.068;18.234;2023-03-31T15:54:11;12.27;;;5.70;;
21356;SDS011;10836;53.068;18.234;2023-03-31T15:57:06;15.67;;;4.60;;
21356;SDS011;10836;53.068;18.234;2023-03-31T15:59:47;13.53;;;4.67;;
21356;SDS011;10836;53.068;18.234;2023-03-31T16:02:23;17.47;;;5.33;;
21356;SDS011;10836;53.068;18.234;2023-03-31T16:04:54;9.57;;;4.70;;
21356;SDS011;10836;53.068;18.234;2023-03-31T16:07:24;13.48;;;5.25;;
21356;SDS011;10836;53.068;18.234;2023-03-31T16:09:57;20.80;;;8.65;;
21356;SDS011;10836;53.068;18.234;2023-03-31T16:15:13;15.47;;;6.77;;
21356;SDS011;10836;53.068;18.234;2023-03-31T16:17:51;14.55;;;4.80;;
21356;SDS011;10836;53.068;18.234;2023-03-31T16:20:27;14.00;;;5.00;;
21356;SDS011;10836;53.068;18.234;2023-03-31T16:22:57;14.47;;;4.60;;
21356;SDS011;10836;53.068;18.234;2023-03-31T16:25:26;14.30;;;5.23;;
21356;SDS011;10836;53.068;18.234;2023-03-31T16:27:57;11.13;;;4.80;;
21356;SDS011;10836;53.068;18.234;2023-03-31T16:30:35;13.25;;;5.20;;
21356;SDS011;10836;53.068;18.234;2023-03-31T16:33:04;15.40;;;5.47;;
21356;SDS011;10836;53.068;18.234;2023-03-31T16:35:36;16.27;;;4.60;;
21356;SDS011;10836;53.068;18.234;2023-03-31T16:38:05;15.63;;;5.13;;
21356;SDS011;10836;53.068;18.234;2023-03-31T16:40:34;18.33;;;5.22;;
21356;SDS011;10836;53.068;18.234;2023-03-31T16:43:13;13.82;;;4.75;;
21356;SDS011;10836;53.068;18.234;2023-03-31T16:45:45;15.05;;;4.72;;
21356;SDS011;10836;53.068;18.234;2023-03-31T16:48:17;14.87;;;4.77;;
21356;SDS011;10836;53.068;18.234;2023-03-31T16:50:46;14.97;;;5.33;;
21356;SDS011;10836;53.068;18.234;2023-03-31T16:53:16;12.88;;;4.75;;
21356;SDS011;10836;53.068;18.234;2023-03-31T16:55:45;11.40;;;4.60;;
21356;SDS011;10836;53.068;18.234;2023-03-31T16:58:12;16.75;;;6.82;;
21356;SDS011;10836;53.068;18.234;2023-03-31T17:00:39;16.60;;;7.18;;
21356;SDS011;10836;53.068;18.234;2023-03-31T17:03:08;18.38;;;8.32;;
21356;SDS011;10836;53.068;18.234;2023-03-31T17:05:40;16.55;;;7.95;;
21356;SDS011;10836;53.068;18.234;2023-03-31T17:08:11;17.80;;;8.07;;
21356;SDS011;10836;53.068;18.234;2023-03-31T17:10:39;15.45;;;6.75;;
21356;SDS011;10836;53.068;18.234;2023-03-31T17:13:07;18.65;;;7.82;;
21356;SDS011;10836;53.068;18.234;2023-03-31T17:15:35;22.30;;;8.02;;
21356;SDS011;10836;53.068;18.234;2023-03-31T17:18:03;17.60;;;7.53;;
21356;SDS011;10836;53.068;18.234;2023-03-31T17:20:31;15.02;;;6.38;;
21356;SDS011;10836;53.068;18.234;2023-03-31T17:22:59;18.92;;;7.68;;
21356;SDS011;10836;53.068;18.234;2023-03-31T17:25:27;21.52;;;9.18;;
21356;SDS011;10836;53.068;18.234;2023-03-31T17:27:54;23.08;;;9.27;;
21356;SDS011;10836;53.068;18.234;2023-03-31T17:30:22;33.67;;;13.27;;
21356;SDS011;10836;53.068;18.234;2023-03-31T17:32:49;23.17;;;10.07;;
21356;SDS011;10836;53.068;18.234;2023-03-31T17:35:18;26.08;;;10.75;;
21356;SDS011;10836;53.068;18.234;2023-03-31T17:37:48;26.15;;;10.80;;
21356;SDS011;10836;53.068;18.234;2023-03-31T17:40:22;22.38;;;9.00;;
21356;SDS011;10836;53.068;18.234;2023-03-31T17:42:53;26.40;;;10.30;;